sensor_id;sensor_type;location;lat;lon;timestamp;temperature;humidity
3156;DHT22;1588;50.892;7.082;2022-12-17T00:01:15;-2.00;99.90
3156;DHT22;1588;50.892;7.082;2022-12-17T00:06:35;-1.90;99.90
3156;DHT22;1588;50.892;7.082;2022-12-17T00:11:54;-2.00;99.90
3156;DHT22;1588;50.892;7.082;2022-12-17T00:17:11;-2.00;99.90
3156;DHT22;1588;50.892;7.082;2022-12-17T00:22:31;-1.90;99.90
3156;DHT22;1588;50.892;7.082;2022-12-17T00:27:51;-2.00;99.90
3156;DHT22;1588;50.892;7.082;2022-12-17T00:33:12;-2.00;99.90
3156;DHT22;1588;50.892;7.082;2022-12-17T00:38:32;-2.00;99.90
3156;DHT22;1588;50.892;7.082;2022-12-17T00:43:52;-2.00;99.90
3156;DHT22;1588;50.892;7.082;2022-12-17T00:49:13;-2.00;99.90
3156;DHT22;1588;50.892;7.082;2022-12-17T00:54:32;-2.00;99.90
3156;DHT22;1588;50.892;7.082;2022-12-17T00:59:52;-2.00;99.90
3156;DHT22;1588;50.892;7.082;2022-12-17T01:05:14;-2.00;99.90
3156;DHT22;1588;50.892;7.082;2022-12-17T01:10:34;-2.00;99.90
3156;DHT22;1588;50.892;7.082;2022-12-17T01:15:54;-2.10;99.90
3156;DHT22;1588;50.892;7.082;2022-12-17T01:21:16;-2.10;99.90
3156;DHT22;1588;50.892;7.082;2022-12-17T01:26:38;-2.10;99.90
3156;DHT22;1588;50.892;7.082;2022-12-17T01:31:58;-2.20;99.90
3156;DHT22;1588;50.892;7.082;2022-12-17T01:37:22;-2.10;99.90
3156;DHT22;1588;50.892;7.082;2022-12-17T01:42:52;-2.20;99.90
3156;DHT22;1588;50.892;7.082;2022-12-17T01:48:14;-2.20;99.90
3156;DHT22;1588;50.892;7.082;2022-12-17T01:53:40;-2.30;99.90
3156;DHT22;1588;50.892;7.082;2022-12-17T01:59:01;-2.30;99.90
3156;DHT22;1588;50.892;7.082;2022-12-17T02:04:22;-2.30;99.90
3156;DHT22;1588;50.892;7.082;2022-12-17T02:09:48;-2.30;99.90
3156;DHT22;1588;50.892;7.082;2022-12-17T02:15:16;-2.40;99.90
3156;DHT22;1588;50.892;7.082;2022-12-17T02:20:40;-2.40;99.90
3156;DHT22;1588;50.892;7.082;2022-12-17T02:26:07;-2.40;99.90
3156;DHT22;1588;50.892;7.082;2022-12-17T02:31:30;-2.40;99.90
3156;DHT22;1588;50.892;7.082;2022-12-17T02:36:53;-2.50;99.90
3156;DHT22;1588;50.892;7.082;2022-12-17T02:42:13;-2.50;99.90
3156;DHT22;1588;50.892;7.082;2022-12-17T02:47:35;-2.50;99.90
3156;DHT22;1588;50.892;7.082;2022-12-17T02:52:58;-2.50;99.90
3156;DHT22;1588;50.892;7.082;2022-12-17T02:58:21;-2.50;99.90
3156;DHT22;1588;50.892;7.082;2022-12-17T03:03:42;-2.50;99.90
3156;DHT22;1588;50.892;7.082;2022-12-17T03:09:03;-2.50;99.90
3156;DHT22;1588;50.892;7.082;2022-12-17T03:14:23;-2.60;99.90
3156;DHT22;1588;50.892;7.082;2022-12-17T03:19:44;-2.60;99.90
3156;DHT22;1588;50.892;7.082;2022-12-17T03:25:04;-2.60;99.90
3156;DHT22;1588;50.892;7.082;2022-12-17T03:30:24;-2.60;99.90
3156;DHT22;1588;50.892;7.082;2022-12-17T03:35:45;-2.60;99.90
3156;DHT22;1588;50.892;7.082;2022-12-17T03:41:05;-2.70;99.90
3156;DHT22;1588;50.892;7.082;2022-12-17T03:46:25;-2.80;99.90
3156;DHT22;1588;50.892;7.082;2022-12-17T03:51:46;-2.80;99.90
3156;DHT22;1588;50.892;7.082;2022-12-17T03:57:05;-2.90;99.90
3156;DHT22;1588;50.892;7.082;2022-12-17T04:02:25;-2.90;99.90
3156;DHT22;1588;50.892;7.082;2022-12-17T04:07:46;-3.00;99.90
3156;DHT22;1588;50.892;7.082;2022-12-17T04:13:06;-3.10;99.90
3156;DHT22;1588;50.892;7.082;2022-12-17T04:18:26;-3.20;99.90
3156;DHT22;1588;50.892;7.082;2022-12-17T04:23:47;-3.30;99.90
3156;DHT22;1588;50.892;7.082;2022-12-17T04:29:07;-3.40;99.90
3156;DHT22;1588;50.892;7.082;2022-12-17T04:34:27;-3.40;99.90
3156;DHT22;1588;50.892;7.082;2022-12-17T04:39:50;-3.50;99.90
3156;DHT22;1588;50.892;7.082;2022-12-17T04:45:10;-3.70;99.90
3156;DHT22;1588;50.892;7.082;2022-12-17T04:50:30;-3.80;99.90
3156;DHT22;1588;50.892;7.082;2022-12-17T04:55:53;-3.80;99.90
3156;DHT22;1588;50.892;7.082;2022-12-17T05:01:13;-3.90;99.90
3156;DHT22;1588;50.892;7.082;2022-12-17T05:06:32;-3.90;99.90
3156;DHT22;1588;50.892;7.082;2022-12-17T05:11:54;-3.90;99.90
3156;DHT22;1588;50.892;7.082;2022-12-17T05:17:13;-4.00;99.90
3156;DHT22;1588;50.892;7.082;2022-12-17T05:22:33;-4.00;99.90
3156;DHT22;1588;50.892;7.082;2022-12-17T05:27:54;-4.00;99.90
3156;DHT22;1588;50.892;7.082;2022-12-17T05:33:14;-4.00;99.90
3156;DHT22;1588;50.892;7.082;2022-12-17T05:38:34;-3.90;99.90
3156;DHT22;1588;50.892;7.082;2022-12-17T05:43:55;-3.90;99.90
3156;DHT22;1588;50.892;7.082;2022-12-17T05:49:15;-4.00;99.90
3156;DHT22;1588;50.892;7.082;2022-12-17T05:54:35;-4.00;99.90
3156;DHT22;1588;50.892;7.082;2022-12-17T05:59:56;-4.00;99.90
3156;DHT22;1588;50.892;7.082;2022-12-17T06:05:16;-4.10;99.90
3156;DHT22;1588;50.892;7.082;2022-12-17T06:10:35;-4.20;99.90
3156;DHT22;1588;50.892;7.082;2022-12-17T06:15:56;-4.20;99.90
3156;DHT22;1588;50.892;7.082;2022-12-17T06:21:16;-4.20;99.90
3156;DHT22;1588;50.892;7.082;2022-12-17T06:26:33;-4.20;99.90
3156;DHT22;1588;50.892;7.082;2022-12-17T06:31:54;-4.20;99.90
3156;DHT22;1588;50.892;7.082;2022-12-17T06:37:14;-4.40;99.90
3156;DHT22;1588;50.892;7.082;2022-12-17T06:42:34;-4.40;99.90
3156;DHT22;1588;50.892;7.082;2022-12-17T06:48:01;-4.40;99.90
3156;DHT22;1588;50.892;7.082;2022-12-17T06:53:21;-4.40;99.90
3156;DHT22;1588;50.892;7.082;2022-12-17T06:58:41;-4.40;99.90
3156;DHT22;1588;50.892;7.082;2022-12-17T07:04:02;-4.30;99.90
3156;DHT22;1588;50.892;7.082;2022-12-17T07:09:24;-4.30;99.90
3156;DHT22;1588;50.892;7.082;2022-12-17T07:14:49;-4.30;99.90
3156;DHT22;1588;50.892;7.082;2022-12-17T07:20:18;-4.30;99.90
3156;DHT22;1588;50.892;7.082;2022-12-17T07:25:38;-4.30;99.90
3156;DHT22;1588;50.892;7.082;2022-12-17T07:30:58;-4.20;99.90
3156;DHT22;1588;50.892;7.082;2022-12-17T07:36:19;-4.10;99.90
3156;DHT22;1588;50.892;7.082;2022-12-17T07:41:39;-4.20;99.90
3156;DHT22;1588;50.892;7.082;2022-12-17T07:46:59;-4.20;99.90
3156;DHT22;1588;50.892;7.082;2022-12-17T07:52:20;-4.10;99.90
3156;DHT22;1588;50.892;7.082;2022-12-17T07:57:40;-4.10;99.90
3156;DHT22;1588;50.892;7.082;2022-12-17T08:03:11;-4.10;99.90
3156;DHT22;1588;50.892;7.082;2022-12-17T08:08:33;-4.00;99.90
3156;DHT22;1588;50.892;7.082;2022-12-17T08:13:52;-4.10;99.90
3156;DHT22;1588;50.892;7.082;2022-12-17T08:19:21;-4.10;99.90
3156;DHT22;1588;50.892;7.082;2022-12-17T08:24:42;-4.10;99.90
3156;DHT22;1588;50.892;7.082;2022-12-17T08:30:03;-4.00;99.90
3156;DHT22;1588;50.892;7.082;2022-12-17T08:35:23;-4.00;99.90
3156;DHT22;1588;50.892;7.082;2022-12-17T08:40:45;-4.00;99.90
3156;DHT22;1588;50.892;7.082;2022-12-17T08:46:05;-4.00;99.90
3156;DHT22;1588;50.892;7.082;2022-12-17T08:51:25;-4.00;99.90
3156;DHT22;1588;50.892;7.082;2022-12-17T08:56:46;-4.00;99.90
3156;DHT22;1588;50.892;7.082;2022-12-17T09:02:08;-3.90;99.90
3156;DHT22;1588;50.892;7.082;2022-12-17T09:07:28;-3.80;99.90
3156;DHT22;1588;50.892;7.082;2022-12-17T09:13:02;-4.00;99.90
3156;DHT22;1588;50.892;7.082;2022-12-17T09:18:27;-4.10;99.90
3156;DHT22;1588;50.892;7.082;2022-12-17T09:23:47;-4.10;99.90
3156;DHT22;1588;50.892;7.082;2022-12-17T09:29:09;-4.10;99.90
3156;DHT22;1588;50.892;7.082;2022-12-17T09:34:29;-4.20;99.90
3156;DHT22;1588;50.892;7.082;2022-12-17T09:39:49;-4.10;99.90
3156;DHT22;1588;50.892;7.082;2022-12-17T09:45:15;-4.00;99.90
3156;DHT22;1588;50.892;7.082;2022-12-17T09:50:37;-3.90;99.90
3156;DHT22;1588;50.892;7.082;2022-12-17T09:55:57;-3.90;99.90
3156;DHT22;1588;50.892;7.082;2022-12-17T10:01:20;-3.90;99.90
3156;DHT22;1588;50.892;7.082;2022-12-17T10:06:40;-3.90;99.90
3156;DHT22;1588;50.892;7.082;2022-12-17T10:12:07;-3.80;99.90
3156;DHT22;1588;50.892;7.082;2022-12-17T10:17:31;-3.70;99.90
3156;DHT22;1588;50.892;7.082;2022-12-17T10:22:51;-3.70;99.90
3156;DHT22;1588;50.892;7.082;2022-12-17T10:28:13;-3.50;99.90
3156;DHT22;1588;50.892;7.082;2022-12-17T10:33:38;-3.40;99.90
3156;DHT22;1588;50.892;7.082;2022-12-17T10:38:58;-3.50;99.90
3156;DHT22;1588;50.892;7.082;2022-12-17T10:44:22;-3.20;99.90
3156;DHT22;1588;50.892;7.082;2022-12-17T10:49:44;-3.10;99.90
3156;DHT22;1588;50.892;7.082;2022-12-17T10:55:20;-3.30;99.90
3156;DHT22;1588;50.892;7.082;2022-12-17T11:00:41;-3.30;99.90
3156;DHT22;1588;50.892;7.082;2022-12-17T11:06:02;-3.30;99.90
3156;DHT22;1588;50.892;7.082;2022-12-17T11:11:34;-3.10;99.90
3156;DHT22;1588;50.892;7.082;2022-12-17T11:16:55;-3.10;99.90
3156;DHT22;1588;50.892;7.082;2022-12-17T11:22:29;-3.00;99.90
3156;DHT22;1588;50.892;7.082;2022-12-17T11:27:57;-2.70;99.90
3156;DHT22;1588;50.892;7.082;2022-12-17T11:33:26;-2.70;99.90
3156;DHT22;1588;50.892;7.082;2022-12-17T11:39:05;-2.70;99.90
3156;DHT22;1588;50.892;7.082;2022-12-17T11:44:42;-2.50;99.90
3156;DHT22;1588;50.892;7.082;2022-12-17T11:50:15;-2.50;99.90
3156;DHT22;1588;50.892;7.082;2022-12-17T11:55:46;-2.40;99.90
3156;DHT22;1588;50.892;7.082;2022-12-17T12:01:16;-2.60;99.90
3156;DHT22;1588;50.892;7.082;2022-12-17T12:06:46;-2.60;99.90
3156;DHT22;1588;50.892;7.082;2022-12-17T12:12:15;-2.60;99.90
3156;DHT22;1588;50.892;7.082;2022-12-17T12:17:42;-2.60;99.90
3156;DHT22;1588;50.892;7.082;2022-12-17T12:23:15;-2.50;99.90
3156;DHT22;1588;50.892;7.082;2022-12-17T12:28:45;-2.40;99.90
3156;DHT22;1588;50.892;7.082;2022-12-17T12:34:10;-2.40;99.90
3156;DHT22;1588;50.892;7.082;2022-12-17T12:39:35;-2.30;99.90
3156;DHT22;1588;50.892;7.082;2022-12-17T12:45:03;-2.30;99.90
3156;DHT22;1588;50.892;7.082;2022-12-17T12:50:29;-2.20;99.90
3156;DHT22;1588;50.892;7.082;2022-12-17T12:55:51;-2.10;99.90
3156;DHT22;1588;50.892;7.082;2022-12-17T13:01:18;-2.10;99.90
3156;DHT22;1588;50.892;7.082;2022-12-17T13:06:43;-2.10;99.90
3156;DHT22;1588;50.892;7.082;2022-12-17T13:11:48;-2.10;99.90
3156;DHT22;1588;50.892;7.082;2022-12-17T13:16:54;-1.90;99.90
3156;DHT22;1588;50.892;7.082;2022-12-17T13:22:09;-1.90;99.90
3156;DHT22;1588;50.892;7.082;2022-12-17T13:27:27;-1.90;99.90
3156;DHT22;1588;50.892;7.082;2022-12-17T13:32:39;-1.90;99.90
3156;DHT22;1588;50.892;7.082;2022-12-17T13:37:54;-1.80;99.90
3156;DHT22;1588;50.892;7.082;2022-12-17T13:43:01;-1.70;99.90
3156;DHT22;1588;50.892;7.082;2022-12-17T13:48:15;-1.70;99.90
3156;DHT22;1588;50.892;7.082;2022-12-17T13:53:19;-1.70;99.90
3156;DHT22;1588;50.892;7.082;2022-12-17T13:58:24;-1.70;99.90
3156;DHT22;1588;50.892;7.082;2022-12-17T14:03:28;-1.70;99.90
3156;DHT22;1588;50.892;7.082;2022-12-17T14:08:31;-1.80;99.90
3156;DHT22;1588;50.892;7.082;2022-12-17T14:13:36;-1.70;99.90
3156;DHT22;1588;50.892;7.082;2022-12-17T14:18:42;-1.90;99.90
3156;DHT22;1588;50.892;7.082;2022-12-17T14:23:49;-1.70;99.90
3156;DHT22;1588;50.892;7.082;2022-12-17T14:28:54;-1.90;99.90
3156;DHT22;1588;50.892;7.082;2022-12-17T14:34:06;-1.80;99.90
3156;DHT22;1588;50.892;7.082;2022-12-17T14:39:21;-1.90;99.90
3156;DHT22;1588;50.892;7.082;2022-12-17T14:44:26;-2.00;99.90
3156;DHT22;1588;50.892;7.082;2022-12-17T14:49:30;-2.00;99.90
3156;DHT22;1588;50.892;7.082;2022-12-17T14:54:33;-2.00;99.90
3156;DHT22;1588;50.892;7.082;2022-12-17T14:59:38;-2.20;99.90
3156;DHT22;1588;50.892;7.082;2022-12-17T15:04:44;-2.30;99.90
3156;DHT22;1588;50.892;7.082;2022-12-17T15:10:09;-2.30;99.90
3156;DHT22;1588;50.892;7.082;2022-12-17T15:15:13;-2.40;99.90
3156;DHT22;1588;50.892;7.082;2022-12-17T15:20:23;-2.40;99.90
3156;DHT22;1588;50.892;7.082;2022-12-17T15:26:01;-2.60;99.90
3156;DHT22;1588;50.892;7.082;2022-12-17T15:31:11;-2.70;99.90
3156;DHT22;1588;50.892;7.082;2022-12-17T15:36:15;-2.80;99.90
3156;DHT22;1588;50.892;7.082;2022-12-17T15:41:23;-2.90;99.90
3156;DHT22;1588;50.892;7.082;2022-12-17T15:46:44;-3.00;99.90
3156;DHT22;1588;50.892;7.082;2022-12-17T15:51:46;-3.10;99.90
3156;DHT22;1588;50.892;7.082;2022-12-17T15:56:53;-3.10;99.90
3156;DHT22;1588;50.892;7.082;2022-12-17T16:02:08;-3.10;99.90
3156;DHT22;1588;50.892;7.082;2022-12-17T16:07:14;-3.20;99.90
3156;DHT22;1588;50.892;7.082;2022-12-17T16:12:18;-3.30;99.90
3156;DHT22;1588;50.892;7.082;2022-12-17T16:17:23;-3.40;99.90
3156;DHT22;1588;50.892;7.082;2022-12-17T16:22:28;-3.50;99.90
3156;DHT22;1588;50.892;7.082;2022-12-17T16:27:31;-3.50;99.90
3156;DHT22;1588;50.892;7.082;2022-12-17T16:32:34;-3.70;99.90
3156;DHT22;1588;50.892;7.082;2022-12-17T16:37:36;-3.90;99.90
3156;DHT22;1588;50.892;7.082;2022-12-17T16:42:40;-4.00;99.90
3156;DHT22;1588;50.892;7.082;2022-12-17T16:47:43;-4.20;99.90
3156;DHT22;1588;50.892;7.082;2022-12-17T16:52:51;-4.30;99.90
3156;DHT22;1588;50.892;7.082;2022-12-17T16:58:06;-4.50;99.90
3156;DHT22;1588;50.892;7.082;2022-12-17T17:03:09;-4.50;99.90
3156;DHT22;1588;50.892;7.082;2022-12-17T17:08:12;-4.60;99.90
3156;DHT22;1588;50.892;7.082;2022-12-17T17:13:18;-4.80;99.90
3156;DHT22;1588;50.892;7.082;2022-12-17T17:18:21;-5.00;99.90
3156;DHT22;1588;50.892;7.082;2022-12-17T17:23:23;-5.10;99.90
3156;DHT22;1588;50.892;7.082;2022-12-17T17:28:27;-5.10;99.90
3156;DHT22;1588;50.892;7.082;2022-12-17T17:33:30;-5.30;99.90
3156;DHT22;1588;50.892;7.082;2022-12-17T17:38:42;-5.40;99.90
3156;DHT22;1588;50.892;7.082;2022-12-17T17:43:50;-5.50;99.90
3156;DHT22;1588;50.892;7.082;2022-12-17T17:48:55;-5.60;99.90
3156;DHT22;1588;50.892;7.082;2022-12-17T17:54:00;-5.70;99.90
3156;DHT22;1588;50.892;7.082;2022-12-17T17:59:05;-5.70;99.90
3156;DHT22;1588;50.892;7.082;2022-12-17T18:04:11;-5.80;99.90
3156;DHT22;1588;50.892;7.082;2022-12-17T18:09:13;-5.90;99.90
3156;DHT22;1588;50.892;7.082;2022-12-17T18:14:17;-5.90;99.90
3156;DHT22;1588;50.892;7.082;2022-12-17T18:19:21;-6.00;99.90
3156;DHT22;1588;50.892;7.082;2022-12-17T18:24:23;-5.90;99.90
3156;DHT22;1588;50.892;7.082;2022-12-17T18:29:27;-5.90;99.90
3156;DHT22;1588;50.892;7.082;2022-12-17T18:34:30;-5.70;99.90
3156;DHT22;1588;50.892;7.082;2022-12-17T18:39:33;-5.40;99.90
3156;DHT22;1588;50.892;7.082;2022-12-17T18:44:39;-5.40;99.90
3156;DHT22;1588;50.892;7.082;2022-12-17T18:49:42;-5.50;99.90
3156;DHT22;1588;50.892;7.082;2022-12-17T18:54:45;-5.70;99.90
3156;DHT22;1588;50.892;7.082;2022-12-17T18:59:49;-5.70;99.90
3156;DHT22;1588;50.892;7.082;2022-12-17T19:04:52;-5.80;99.90
3156;DHT22;1588;50.892;7.082;2022-12-17T19:09:55;-5.80;99.90
3156;DHT22;1588;50.892;7.082;2022-12-17T19:14:59;-5.80;99.90
3156;DHT22;1588;50.892;7.082;2022-12-17T19:20:03;-5.90;99.90
3156;DHT22;1588;50.892;7.082;2022-12-17T19:25:06;-6.00;99.90
3156;DHT22;1588;50.892;7.082;2022-12-17T19:30:11;-6.00;99.90
3156;DHT22;1588;50.892;7.082;2022-12-17T19:35:14;-6.10;99.90
3156;DHT22;1588;50.892;7.082;2022-12-17T19:40:18;-6.30;99.90
3156;DHT22;1588;50.892;7.082;2022-12-17T19:45:22;-6.40;99.90
3156;DHT22;1588;50.892;7.082;2022-12-17T19:50:25;-6.40;99.90
3156;DHT22;1588;50.892;7.082;2022-12-17T19:55:27;-6.50;99.90
3156;DHT22;1588;50.892;7.082;2022-12-17T20:00:35;-6.50;99.90
3156;DHT22;1588;50.892;7.082;2022-12-17T20:05:41;-6.60;99.90
3156;DHT22;1588;50.892;7.082;2022-12-17T20:10:44;-6.60;99.90
3156;DHT22;1588;50.892;7.082;2022-12-17T20:15:48;-6.60;99.90
3156;DHT22;1588;50.892;7.082;2022-12-17T20:21:01;-6.70;99.90
3156;DHT22;1588;50.892;7.082;2022-12-17T20:26:05;-6.60;99.90
3156;DHT22;1588;50.892;7.082;2022-12-17T20:31:10;-6.70;99.90
3156;DHT22;1588;50.892;7.082;2022-12-17T20:36:15;-6.70;99.90
3156;DHT22;1588;50.892;7.082;2022-12-17T20:41:20;-6.70;99.90
3156;DHT22;1588;50.892;7.082;2022-12-17T20:46:24;-6.80;99.90
3156;DHT22;1588;50.892;7.082;2022-12-17T20:51:27;-6.70;99.90
3156;DHT22;1588;50.892;7.082;2022-12-17T20:56:32;-6.60;99.90
3156;DHT22;1588;50.892;7.082;2022-12-17T21:01:36;-6.70;99.90
3156;DHT22;1588;50.892;7.082;2022-12-17T21:06:40;-6.60;99.90
3156;DHT22;1588;50.892;7.082;2022-12-17T21:11:43;-6.60;99.90
3156;DHT22;1588;50.892;7.082;2022-12-17T21:16:48;-6.70;99.90
3156;DHT22;1588;50.892;7.082;2022-12-17T21:21:50;-6.80;99.90
3156;DHT22;1588;50.892;7.082;2022-12-17T21:26:53;-6.80;99.90
3156;DHT22;1588;50.892;7.082;2022-12-17T21:31:57;-6.90;99.90
3156;DHT22;1588;50.892;7.082;2022-12-17T21:37:09;-6.90;99.90
3156;DHT22;1588;50.892;7.082;2022-12-17T21:42:16;-6.90;99.90
3156;DHT22;1588;50.892;7.082;2022-12-17T21:47:37;-7.00;99.90
3156;DHT22;1588;50.892;7.082;2022-12-17T21:52:40;-7.00;99.90
3156;DHT22;1588;50.892;7.082;2022-12-17T21:57:42;-6.80;99.90
3156;DHT22;1588;50.892;7.082;2022-12-17T22:02:46;-6.70;99.90
3156;DHT22;1588;50.892;7.082;2022-12-17T22:07:50;-6.60;99.90
3156;DHT22;1588;50.892;7.082;2022-12-17T22:12:52;-6.60;99.90
3156;DHT22;1588;50.892;7.082;2022-12-17T22:18:22;-6.70;99.90
3156;DHT22;1588;50.892;7.082;2022-12-17T22:23:25;-6.80;99.90
3156;DHT22;1588;50.892;7.082;2022-12-17T22:28:28;-6.80;99.90
3156;DHT22;1588;50.892;7.082;2022-12-17T22:33:32;-6.80;99.90
3156;DHT22;1588;50.892;7.082;2022-12-17T22:38:35;-6.70;99.90
3156;DHT22;1588;50.892;7.082;2022-12-17T22:43:41;-6.80;99.90
3156;DHT22;1588;50.892;7.082;2022-12-17T22:48:45;-7.00;99.90
3156;DHT22;1588;50.892;7.082;2022-12-17T22:53:49;-7.00;99.90
3156;DHT22;1588;50.892;7.082;2022-12-17T22:58:56;-7.00;99.90
3156;DHT22;1588;50.892;7.082;2022-12-17T23:04:04;-7.00;99.90
3156;DHT22;1588;50.892;7.082;2022-12-17T23:09:14;-6.80;99.90
3156;DHT22;1588;50.892;7.082;2022-12-17T23:14:19;-6.70;99.90
3156;DHT22;1588;50.892;7.082;2022-12-17T23:19:25;-6.50;99.90
3156;DHT22;1588;50.892;7.082;2022-12-17T23:24:28;-6.50;99.90
3156;DHT22;1588;50.892;7.082;2022-12-17T23:29:32;-6.50;99.90
3156;DHT22;1588;50.892;7.082;2022-12-17T23:34:53;-6.50;99.90
3156;DHT22;1588;50.892;7.082;2022-12-17T23:40:14;-6.60;99.90
3156;DHT22;1588;50.892;7.082;2022-12-17T23:45:17;-6.70;99.90
3156;DHT22;1588;50.892;7.082;2022-12-17T23:50:20;-6.80;99.90
3156;DHT22;1588;50.892;7.082;2022-12-17T23:55:23;-6.80;99.90
